Main page
METAR-TAF:

METAR-TAF

Airports :

Tulsa International Airport

Tulsa, Oklahoma, United States

latitude: 36-11-51N, longitude: 095-53-11W, elevation: 676 ft

Current weather observation

The report was made 25 minutes ago, at 20:53 UTC
Wind 15 mph from the South with gusts up to 25 mph
Temperature 93°F
Humidity 50%
Pressure 29.90 in. Hg
Visibility: 10 miles
Clear sky

METAR: KTUL 132053Z 17013G22KT 10SM CLR 34/22 A2990 RMK AO2 SLP116 T03390222 58014

Time: 16:18 (21:18 UTC)

Forecast

The report was made 21 minutes ago, at 20:57 UTC
Forecast valid from 13 at 21 UTC to 14 at 18 UTC
Wind 15 mph from the South with gusts up to 25 mph
Visibility: 6 miles
Clear sky
From 14 at 0100 UTC
Wind 9 mph from the South
Visibility: 6 miles
Scattered clouds at a height of 18000 ft

TAF: KTUL 132057Z 1321/1418 17013G22KT P6SM SKC FM140100 19008KT P6SM SCT180

Weather observations and forecasts of more than 4000 airports (METAR and TAF reports).

The available stations are represented by yellow and red dots on the map.

Hover mouse over dot to see the name of the station.

Then click to see weather observations and forecasts.

To change the map : click on the green buttons with a black cross to zoom in, on the green button with a dash to zoom out, or on the green arrows for adjacent maps.


METAR-TAF: